createdAt,value
2022-10-29T00:00:13.334Z,100.00
2022-10-29T00:02:41.150Z,100.00
2022-10-29T00:05:09.811Z,100.00
2022-10-29T00:07:37.661Z,100.00
2022-10-29T00:10:08.023Z,100.00
2022-10-29T00:12:36.176Z,100.00
2022-10-29T00:15:05.185Z,100.00
2022-10-29T00:17:32.932Z,100.00
2022-10-29T00:20:00.782Z,100.00
2022-10-29T00:22:28.644Z,100.00
2022-10-29T00:24:56.444Z,100.00
2022-10-29T00:27:26.144Z,100.00
2022-10-29T00:29:55.346Z,100.00
2022-10-29T00:32:23.274Z,100.00
2022-10-29T00:34:51.041Z,100.00
2022-10-29T00:37:18.769Z,100.00
2022-10-29T00:39:46.515Z,100.00
2022-10-29T00:42:16.649Z,100.00
2022-10-29T00:44:45.991Z,100.00
2022-10-29T00:47:25.871Z,100.00
2022-10-29T00:49:57.561Z,100.00
2022-10-29T00:52:30.942Z,100.00
2022-10-29T00:55:02.199Z,100.00
2022-10-29T00:57:36.951Z,100.00
2022-10-29T01:00:07.355Z,100.00
2022-10-29T01:02:36.423Z,100.00
2022-10-29T01:05:05.581Z,100.00
2022-10-29T01:07:33.408Z,100.00
2022-10-29T01:10:01.169Z,100.00
2022-10-29T01:12:44.717Z,100.00
2022-10-29T01:15:22.360Z,100.00
2022-10-29T01:18:04.290Z,100.00
2022-10-29T01:21:05.551Z,100.00
2022-10-29T01:24:07.331Z,100.00
2022-10-29T01:26:59.959Z,100.00
2022-10-29T01:29:44.353Z,100.00
2022-10-29T01:32:15.453Z,100.00
2022-10-29T01:34:52.535Z,100.00
2022-10-29T01:37:27.362Z,100.00
2022-10-29T01:39:59.606Z,100.00
2022-10-29T01:42:32.954Z,100.00
2022-10-29T01:45:09.143Z,100.00
2022-10-29T01:47:43.121Z,100.00
2022-10-29T01:50:16.429Z,100.00
2022-10-29T01:52:45.791Z,100.00
2022-10-29T01:55:17.413Z,100.00
2022-10-29T01:57:45.296Z,100.00
2022-10-29T02:00:15.754Z,100.00
2022-10-29T02:02:55.608Z,100.00
2022-10-29T02:05:32.999Z,100.00
2022-10-29T02:08:14.864Z,100.00
2022-10-29T02:10:49.991Z,100.00
2022-10-29T02:13:20.137Z,100.00
2022-10-29T02:15:52.388Z,100.00
2022-10-29T02:18:21.664Z,100.00
2022-10-29T02:20:49.463Z,100.00
2022-10-29T02:23:17.703Z,100.00
2022-10-29T02:25:45.691Z,100.00
2022-10-29T02:28:13.546Z,100.00
2022-10-29T02:30:41.325Z,100.00
2022-10-29T02:33:09.058Z,100.00
2022-10-29T02:35:38.237Z,100.00
2022-10-29T02:38:05.989Z,100.00
2022-10-29T02:40:34.195Z,100.00
2022-10-29T02:43:02.002Z,100.00
2022-10-29T02:45:29.782Z,100.00
2022-10-29T02:47:57.836Z,100.00
2022-10-29T02:50:26.003Z,100.00
2022-10-29T02:52:55.133Z,100.00
2022-10-29T02:55:22.910Z,100.00
2022-10-29T02:57:50.759Z,100.00
2022-10-29T03:00:19.300Z,100.00
2022-10-29T03:02:47.336Z,100.00
2022-10-29T03:05:15.288Z,100.00
2022-10-29T03:07:43.061Z,100.00
2022-10-29T03:10:12.403Z,100.00
2022-10-29T03:12:40.138Z,100.00
2022-10-29T03:15:08.762Z,100.00
2022-10-29T03:17:36.584Z,100.00
2022-10-29T03:20:04.915Z,100.00
2022-10-29T03:22:32.694Z,100.00
2022-10-29T03:25:00.520Z,100.00
2022-10-29T03:27:29.662Z,100.00
2022-10-29T03:29:57.381Z,100.00
2022-10-29T03:32:25.094Z,100.00
2022-10-29T03:34:56.059Z,100.00
2022-10-29T03:37:27.155Z,100.00
2022-10-29T03:39:55.091Z,100.00
2022-10-29T03:42:22.979Z,100.00
2022-10-29T03:44:52.386Z,100.00
2022-10-29T03:47:20.166Z,100.00
2022-10-29T03:49:48.065Z,100.00
2022-10-29T03:52:15.832Z,100.00
2022-10-29T03:54:43.700Z,100.00
2022-10-29T03:57:11.544Z,100.00
2022-10-29T03:59:39.388Z,100.00
2022-10-29T04:02:12.853Z,100.00
2022-10-29T04:04:40.706Z,100.00
2022-10-29T04:07:08.523Z,100.00
2022-10-29T04:09:36.345Z,100.00
2022-10-29T04:12:04.727Z,100.00
2022-10-29T04:14:32.558Z,100.00
2022-10-29T04:17:00.786Z,100.00
2022-10-29T04:19:30.339Z,100.00
2022-10-29T04:24:32.464Z,100.00
2022-10-29T04:27:08.107Z,100.00
2022-10-29T04:28:41.855Z,100.00
2022-10-29T04:30:22.217Z,100.00
2022-10-29T04:32:50.223Z,100.00
2022-10-29T04:35:19.414Z,100.00
2022-10-29T04:37:47.163Z,100.00
2022-10-29T04:40:15.128Z,100.00
2022-10-29T04:42:42.996Z,100.00
2022-10-29T04:45:11.206Z,100.00
2022-10-29T04:47:39.008Z,100.00
2022-10-29T04:50:07.131Z,100.00
2022-10-29T04:52:36.239Z,100.00
2022-10-29T04:55:04.645Z,100.00
2022-10-29T04:57:32.685Z,100.00
2022-10-29T05:00:00.584Z,100.00
2022-10-29T05:02:28.375Z,100.00
2022-10-29T05:04:56.327Z,100.00
2022-10-29T05:07:24.091Z,100.00
2022-10-29T05:09:53.263Z,100.00
2022-10-29T05:12:21.301Z,100.00
2022-10-29T05:14:49.128Z,100.00
2022-10-29T05:17:16.896Z,100.00
2022-10-29T05:19:44.785Z,100.00
2022-10-29T05:22:12.565Z,100.00
2022-10-29T05:24:40.307Z,100.00
2022-10-29T05:27:09.669Z,100.00
2022-10-29T05:29:37.485Z,100.00
2022-10-29T05:32:05.788Z,100.00
2022-10-29T05:34:33.541Z,100.00
2022-10-29T05:37:01.343Z,100.00
2022-10-29T05:39:29.121Z,100.00
2022-10-29T05:41:56.861Z,100.00
2022-10-29T05:44:25.981Z,100.00
2022-10-29T05:46:53.818Z,100.00
2022-10-29T05:49:21.610Z,100.00
2022-10-29T05:51:49.408Z,100.00
2022-10-29T05:54:17.189Z,100.00
2022-10-29T05:56:44.946Z,100.00
2022-10-29T05:59:12.723Z,100.00
2022-10-29T06:01:42.044Z,100.00
2022-10-29T06:04:10.005Z,100.00
2022-10-29T06:06:38.038Z,100.00
2022-10-29T06:09:05.968Z,100.00
2022-10-29T06:11:33.740Z,100.00
2022-10-29T06:14:01.483Z,100.00
2022-10-29T06:16:29.282Z,100.00
2022-10-29T06:18:58.414Z,100.00
2022-10-29T06:21:26.270Z,100.00
2022-10-29T06:23:55.752Z,100.00
2022-10-29T06:26:23.582Z,100.00
2022-10-29T06:28:51.796Z,100.00
2022-10-29T06:31:19.689Z,100.00
2022-10-29T06:33:47.392Z,100.00
2022-10-29T06:36:16.505Z,100.00
2022-10-29T06:38:44.300Z,100.00
2022-10-29T06:41:12.198Z,100.00
2022-10-29T06:43:39.945Z,100.00
2022-10-29T06:46:07.884Z,100.00
2022-10-29T06:48:36.884Z,100.00
2022-10-29T06:51:04.924Z,100.00
2022-10-29T06:53:34.077Z,100.00
2022-10-29T06:56:01.856Z,100.00
2022-10-29T06:58:29.702Z,100.00
2022-10-29T07:03:26.214Z,100.00
2022-10-29T07:05:57.203Z,100.00
2022-10-29T07:08:25.328Z,100.00
2022-10-29T07:10:55.175Z,100.00
2022-10-29T07:13:23.153Z,100.00
2022-10-29T07:15:50.949Z,100.00
2022-10-29T07:18:18.774Z,100.00
2022-10-29T07:20:47.086Z,100.00
2022-10-29T07:23:14.861Z,100.00
2022-10-29T07:25:43.378Z,100.00
2022-10-29T07:28:14.755Z,100.00
2022-10-29T07:30:43.144Z,100.00
2022-10-29T07:33:11.116Z,100.00
2022-10-29T07:35:39.600Z,100.00
2022-10-29T07:38:10.923Z,100.00
2022-10-29T07:40:39.868Z,100.00
2022-10-29T07:43:07.713Z,100.00
2022-10-29T07:45:36.849Z,100.00
2022-10-29T07:48:07.516Z,100.00
2022-10-29T07:50:35.438Z,100.00
2022-10-29T07:53:04.404Z,100.00
2022-10-29T07:55:32.534Z,100.00
2022-10-29T07:58:02.496Z,100.00
2022-10-29T08:00:31.020Z,100.00
2022-10-29T08:03:00.172Z,100.00
2022-10-29T08:05:30.027Z,100.00
2022-10-29T08:07:58.897Z,100.00
2022-10-29T08:10:27.782Z,100.00
2022-10-29T08:12:57.854Z,100.00
2022-10-29T08:15:27.184Z,100.00
2022-10-29T08:17:55.460Z,100.00
2022-10-29T08:20:26.812Z,100.00
2022-10-29T08:22:55.111Z,100.00
2022-10-29T08:25:23.113Z,100.00
2022-10-29T08:28:00.365Z,100.00
2022-10-29T08:30:28.603Z,100.00
2022-10-29T08:32:57.350Z,100.00
2022-10-29T08:35:26.899Z,100.00
2022-10-29T08:37:54.644Z,100.00
2022-10-29T08:40:30.138Z,100.00
2022-10-29T08:43:26.024Z,100.00
2022-10-29T08:45:55.919Z,100.00
2022-10-29T08:48:34.248Z,100.00
2022-10-29T08:51:09.786Z,100.00
2022-10-29T08:53:40.540Z,100.00
2022-10-29T08:56:16.468Z,100.00
2022-10-29T08:58:54.292Z,100.00
2022-10-29T09:01:24.391Z,100.00
2022-10-29T09:03:53.186Z,100.00
2022-10-29T09:06:31.530Z,100.00
2022-10-29T09:09:11.880Z,100.00
2022-10-29T09:12:04.309Z,100.00
2022-10-29T09:14:55.539Z,100.00
2022-10-29T09:17:32.882Z,100.00
2022-10-29T09:20:09.812Z,100.00
2022-10-29T09:22:49.677Z,100.00
2022-10-29T09:25:23.687Z,100.00
2022-10-29T09:28:07.810Z,100.00
2022-10-29T09:30:44.150Z,100.00
2022-10-29T09:33:16.033Z,100.00
2022-10-29T09:35:47.382Z,100.00
2022-10-29T09:38:19.245Z,100.00
2022-10-29T09:40:47.379Z,100.00
2022-10-29T09:43:30.107Z,100.00
2022-10-29T09:46:02.351Z,100.00
2022-10-29T09:48:36.454Z,100.00
2022-10-29T09:51:16.421Z,100.00
2022-10-29T09:53:45.926Z,99.54
2022-10-29T09:56:13.704Z,97.78
2022-10-29T09:58:47.842Z,97.91
2022-10-29T10:01:15.737Z,96.93
2022-10-29T10:03:46.569Z,96.95
2022-10-29T10:06:16.366Z,95.93
2022-10-29T10:09:01.876Z,94.93
2022-10-29T10:11:38.000Z,94.82
2022-10-29T10:14:15.911Z,94.27
2022-10-29T10:16:44.050Z,93.79
2022-10-29T10:19:23.747Z,93.70
2022-10-29T10:21:59.096Z,93.79
2022-10-29T10:24:33.399Z,93.37
2022-10-29T10:27:01.543Z,93.67
2022-10-29T10:29:29.655Z,93.50
2022-10-29T10:32:17.079Z,93.15
2022-10-29T10:34:44.919Z,92.50
2022-10-29T10:37:19.373Z,92.23
2022-10-29T10:39:52.685Z,91.56
2022-10-29T10:42:25.616Z,91.73
2022-10-29T10:44:58.808Z,90.98
2022-10-29T10:47:30.697Z,90.99
2022-10-29T10:50:11.853Z,90.44
2022-10-29T10:52:40.085Z,91.17
2022-10-29T10:55:22.823Z,92.04
2022-10-29T10:57:59.390Z,92.04
2022-10-29T11:00:30.791Z,91.89
2022-10-29T11:03:04.976Z,91.68
2022-10-29T11:05:36.455Z,92.43
2022-10-29T11:08:11.667Z,92.25
2022-10-29T11:10:45.812Z,91.87
2022-10-29T11:13:16.951Z,91.41
2022-10-29T11:15:51.682Z,92.21
2022-10-29T11:18:25.395Z,92.28
2022-10-29T11:21:05.866Z,92.70
2022-10-29T11:23:44.468Z,93.49
2022-10-29T11:26:18.904Z,94.00
2022-10-29T11:28:54.127Z,94.20
2022-10-29T11:31:28.650Z,95.08
2022-10-29T11:34:04.174Z,94.16
2022-10-29T11:36:39.003Z,93.92
2022-10-29T11:39:12.239Z,94.48
2022-10-29T11:41:47.633Z,94.44
2022-10-29T11:44:20.766Z,94.10
2022-10-29T11:47:02.593Z,93.98
2022-10-29T11:49:47.620Z,93.94
2022-10-29T11:52:34.776Z,93.08
2022-10-29T11:55:20.483Z,92.87
2022-10-29T11:57:56.680Z,93.03
2022-10-29T12:00:25.841Z,92.71
2022-10-29T12:03:32.085Z,92.89
2022-10-29T12:06:10.468Z,92.88
2022-10-29T12:08:57.132Z,92.82
2022-10-29T12:11:32.597Z,93.18
2022-10-29T12:14:12.804Z,93.47
2022-10-29T12:16:50.409Z,92.87
2022-10-29T12:19:38.519Z,92.55
2022-10-29T12:22:18.623Z,91.67
2022-10-29T12:25:07.781Z,90.88
2022-10-29T12:27:45.699Z,90.42
2022-10-29T12:30:18.190Z,89.65
2022-10-29T12:32:56.209Z,89.14
2022-10-29T12:35:30.239Z,88.29
2022-10-29T12:38:13.643Z,88.12
2022-10-29T12:40:44.823Z,87.81
2022-10-29T12:43:19.355Z,87.60
2022-10-29T12:48:54.515Z,87.51
2022-10-29T12:51:29.914Z,86.31
2022-10-29T12:54:16.450Z,85.75
2022-10-29T12:56:47.796Z,85.37
2022-10-29T12:59:34.041Z,84.62
2022-10-29T13:02:27.729Z,84.41
2022-10-29T13:05:37.126Z,82.36
2022-10-29T13:08:44.517Z,80.26
2022-10-29T13:11:24.146Z,79.91
2022-10-29T13:13:58.176Z,79.56
2022-10-29T13:16:31.332Z,79.32
2022-10-29T13:19:15.202Z,79.32
2022-10-29T13:21:59.862Z,79.07
2022-10-29T13:24:28.668Z,79.10
2022-10-29T13:27:05.896Z,79.27
2022-10-29T13:29:51.153Z,79.14
2022-10-29T13:32:33.030Z,79.26
2022-10-29T13:35:03.877Z,79.78
2022-10-29T13:37:53.800Z,80.34
2022-10-29T13:40:41.589Z,80.40
2022-10-29T13:43:18.044Z,80.88
2022-10-29T13:45:51.217Z,81.09
2022-10-29T13:48:26.289Z,81.62
2022-10-29T13:50:58.638Z,82.14
2022-10-29T13:53:36.461Z,82.62
2022-10-29T13:56:08.135Z,82.90
2022-10-29T13:58:38.535Z,83.45
2022-10-29T14:01:12.179Z,83.59
2022-10-29T14:03:50.849Z,83.81
2022-10-29T14:06:26.084Z,84.12
2022-10-29T14:09:01.267Z,84.79
2022-10-29T14:11:31.894Z,85.32
2022-10-29T14:14:02.321Z,85.31
2022-10-29T14:16:32.634Z,85.85
2022-10-29T14:19:14.654Z,85.98
2022-10-29T14:21:43.833Z,86.34
2022-10-29T14:24:15.943Z,86.55
2022-10-29T14:26:45.587Z,86.78
2022-10-29T14:29:21.279Z,86.92
2022-10-29T14:32:05.228Z,86.96
2022-10-29T14:34:33.202Z,87.44
2022-10-29T14:37:05.777Z,87.59
2022-10-29T14:39:48.503Z,87.94
2022-10-29T14:42:31.420Z,88.38
2022-10-29T14:45:02.727Z,88.71
2022-10-29T14:47:33.591Z,89.51
2022-10-29T14:50:05.004Z,89.79
2022-10-29T14:52:38.633Z,89.88
2022-10-29T14:55:10.014Z,90.62
2022-10-29T14:57:44.496Z,90.86
2022-10-29T15:00:24.226Z,91.10
2022-10-29T15:02:53.509Z,91.07
2022-10-29T15:05:26.103Z,91.25
2022-10-29T15:08:07.076Z,91.37
2022-10-29T15:10:46.243Z,91.62
2022-10-29T15:13:30.406Z,91.55
2022-10-29T15:16:02.093Z,91.66
2022-10-29T15:18:31.610Z,91.72
2022-10-29T15:20:59.793Z,91.99
2022-10-29T15:23:34.045Z,92.41
2022-10-29T15:26:04.225Z,92.43
2022-10-29T15:28:40.917Z,92.73
2022-10-29T15:31:21.971Z,93.07
2022-10-29T15:33:52.606Z,93.48
2022-10-29T15:36:20.815Z,93.37
2022-10-29T15:39:21.044Z,93.09
2022-10-29T15:41:51.547Z,93.09
2022-10-29T15:44:39.337Z,93.12
2022-10-29T15:47:28.624Z,92.69
2022-10-29T15:49:56.686Z,92.66
2022-10-29T15:52:31.074Z,92.54
2022-10-29T15:55:00.819Z,92.52
2022-10-29T15:57:31.463Z,92.71
2022-10-29T16:00:05.248Z,92.62
2022-10-29T16:02:33.154Z,92.83
2022-10-29T16:05:01.160Z,93.30
2022-10-29T16:07:29.031Z,93.98
2022-10-29T16:09:58.984Z,94.27
2022-10-29T16:12:27.053Z,94.31
2022-10-29T16:14:56.230Z,94.71
2022-10-29T16:17:23.960Z,95.27
2022-10-29T16:19:51.915Z,95.86
2022-10-29T16:22:27.768Z,96.15
2022-10-29T16:24:56.134Z,96.70
2022-10-29T16:27:23.949Z,97.08
2022-10-29T16:29:51.924Z,97.64
2022-10-29T16:32:23.869Z,97.96
2022-10-29T16:34:52.276Z,98.44
2022-10-29T16:37:21.492Z,98.62
2022-10-29T16:39:49.320Z,98.76
2022-10-29T16:42:30.939Z,99.03
2022-10-29T16:44:58.827Z,99.59
2022-10-29T16:47:28.221Z,99.74
2022-10-29T16:49:56.139Z,100.00
2022-10-29T16:52:26.350Z,100.00
2022-10-29T16:54:56.921Z,100.00
2022-10-29T16:57:25.076Z,100.00
2022-10-29T16:59:52.873Z,100.00
2022-10-29T17:02:20.649Z,100.00
2022-10-29T17:04:49.886Z,100.00
2022-10-29T17:07:18.287Z,100.00
2022-10-29T17:09:46.120Z,100.00
2022-10-29T17:12:13.980Z,100.00
2022-10-29T17:14:41.846Z,100.00
2022-10-29T17:17:09.571Z,100.00
2022-10-29T17:19:37.525Z,100.00
2022-10-29T17:22:10.492Z,100.00
2022-10-29T17:24:38.378Z,100.00
2022-10-29T17:27:06.191Z,100.00
2022-10-29T17:29:36.444Z,100.00
2022-10-29T17:32:05.818Z,100.00
2022-10-29T17:34:35.103Z,100.00
2022-10-29T17:37:04.300Z,100.00
2022-10-29T17:39:33.449Z,100.00
2022-10-29T17:42:01.300Z,100.00
2022-10-29T17:44:29.100Z,100.00
2022-10-29T17:46:56.854Z,100.00
2022-10-29T17:49:25.818Z,100.00
2022-10-29T17:51:53.815Z,100.00
2022-10-29T17:54:22.151Z,100.00
2022-10-29T17:56:52.225Z,100.00
2022-10-29T17:59:20.026Z,100.00
2022-10-29T18:01:48.159Z,100.00
2022-10-29T18:04:16.491Z,100.00
2022-10-29T18:06:44.345Z,100.00
2022-10-29T18:09:13.746Z,100.00
2022-10-29T18:11:43.646Z,100.00
2022-10-29T18:14:12.740Z,100.00
2022-10-29T18:16:40.461Z,100.00
2022-10-29T18:19:08.284Z,100.00
2022-10-29T18:21:36.009Z,100.00
2022-10-29T18:24:03.799Z,100.00
2022-10-29T18:26:33.120Z,100.00
2022-10-29T18:29:02.373Z,100.00
2022-10-29T18:31:33.043Z,100.00
2022-10-29T18:34:04.782Z,100.00
2022-10-29T18:36:33.248Z,100.00
2022-10-29T18:39:01.233Z,100.00
2022-10-29T18:41:29.033Z,100.00
2022-10-29T18:43:56.949Z,100.00
2022-10-29T18:46:24.779Z,100.00
2022-10-29T18:48:53.935Z,100.00
2022-10-29T18:51:24.709Z,100.00
2022-10-29T18:53:53.384Z,100.00
2022-10-29T18:56:22.770Z,100.00
2022-10-29T18:58:50.824Z,100.00
2022-10-29T19:01:20.609Z,100.00
2022-10-29T19:03:50.630Z,100.00
2022-10-29T19:06:20.876Z,100.00
2022-10-29T19:08:48.796Z,100.00
2022-10-29T19:11:18.604Z,100.00
2022-10-29T19:13:51.284Z,100.00
2022-10-29T19:16:19.893Z,100.00
2022-10-29T19:18:47.925Z,100.00
2022-10-29T19:21:17.741Z,100.00
2022-10-29T19:23:47.368Z,100.00
2022-10-29T19:26:17.588Z,100.00
2022-10-29T19:28:47.015Z,100.00
2022-10-29T19:31:16.876Z,100.00
2022-10-29T19:33:48.344Z,100.00
2022-10-29T19:36:16.241Z,100.00
2022-10-29T19:38:44.350Z,100.00
2022-10-29T19:41:14.198Z,100.00
2022-10-29T19:43:42.747Z,100.00
2022-10-29T19:46:13.103Z,100.00
2022-10-29T19:48:41.371Z,100.00
2022-10-29T19:51:10.218Z,100.00
2022-10-29T19:53:39.568Z,100.00
2022-10-29T19:56:08.394Z,100.00
2022-10-29T19:58:37.526Z,100.00
2022-10-29T20:01:07.211Z,100.00
2022-10-29T20:03:35.043Z,100.00
2022-10-29T20:06:02.915Z,100.00
2022-10-29T20:08:31.055Z,100.00
2022-10-29T20:10:59.647Z,100.00
2022-10-29T20:13:28.267Z,100.00
2022-10-29T20:15:57.469Z,100.00
2022-10-29T20:18:25.877Z,100.00
2022-10-29T20:20:57.905Z,100.00
2022-10-29T20:23:26.429Z,100.00
2022-10-29T20:25:54.188Z,100.00
2022-10-29T20:28:22.491Z,100.00
2022-10-29T20:30:50.250Z,100.00
2022-10-29T20:33:19.514Z,100.00
2022-10-29T20:35:47.302Z,100.00
2022-10-29T20:38:15.114Z,100.00
2022-10-29T20:40:42.876Z,100.00
2022-10-29T20:43:10.693Z,100.00
2022-10-29T20:45:38.534Z,100.00
2022-10-29T20:48:07.322Z,100.00
2022-10-29T20:50:36.472Z,100.00
2022-10-29T20:53:04.430Z,100.00
2022-10-29T20:55:32.256Z,100.00
2022-10-29T20:58:00.494Z,100.00
2022-10-29T21:00:28.501Z,100.00
2022-10-29T21:02:56.256Z,100.00
2022-10-29T21:05:24.052Z,100.00
2022-10-29T21:07:53.203Z,100.00
2022-10-29T21:10:21.071Z,100.00
2022-10-29T21:12:48.857Z,100.00
2022-10-29T21:15:16.976Z,100.00
2022-10-29T21:17:44.878Z,100.00
2022-10-29T21:20:12.782Z,100.00
2022-10-29T21:22:40.994Z,100.00
2022-10-29T21:25:11.295Z,100.00
2022-10-29T21:27:39.580Z,100.00
2022-10-29T21:30:09.050Z,100.00
2022-10-29T21:32:36.977Z,100.00
2022-10-29T21:35:04.918Z,100.00
2022-10-29T21:37:32.717Z,100.00
2022-10-29T21:40:03.433Z,100.00
2022-10-29T21:42:35.450Z,100.00
2022-10-29T21:45:03.611Z,100.00
2022-10-29T21:47:31.387Z,100.00
2022-10-29T21:49:59.191Z,100.00
2022-10-29T21:52:27.029Z,100.00
2022-10-29T21:54:54.813Z,100.00
2022-10-29T21:57:22.595Z,100.00
2022-10-29T21:59:51.744Z,100.00
2022-10-29T22:02:19.568Z,100.00
2022-10-29T22:04:47.369Z,100.00
2022-10-29T22:07:15.412Z,100.00
2022-10-29T22:09:43.169Z,100.00
2022-10-29T22:12:10.983Z,100.00
2022-10-29T22:14:38.764Z,100.00
2022-10-29T22:17:07.966Z,100.00
2022-10-29T22:19:35.748Z,100.00
2022-10-29T22:22:03.633Z,100.00
2022-10-29T22:24:31.442Z,100.00
2022-10-29T22:26:59.241Z,100.00
2022-10-29T22:29:27.061Z,100.00
2022-10-29T22:31:54.950Z,100.00
2022-10-29T22:34:24.292Z,100.00
2022-10-29T22:36:52.430Z,100.00
2022-10-29T22:39:20.231Z,100.00
2022-10-29T22:41:47.992Z,100.00
2022-10-29T22:44:15.731Z,100.00
2022-10-29T22:46:43.557Z,100.00
2022-10-29T22:49:12.176Z,100.00
2022-10-29T22:51:41.671Z,100.00
2022-10-29T22:54:09.484Z,100.00
2022-10-29T22:56:39.129Z,100.00
2022-10-29T22:59:07.400Z,100.00
2022-10-29T23:01:40.320Z,100.00
2022-10-29T23:04:12.106Z,100.00
2022-10-29T23:06:41.283Z,100.00
2022-10-29T23:09:09.090Z,100.00
2022-10-29T23:11:39.249Z,100.00
2022-10-29T23:14:07.325Z,100.00
2022-10-29T23:16:37.431Z,100.00
2022-10-29T23:19:06.963Z,100.00
2022-10-29T23:21:34.803Z,100.00
2022-10-29T23:24:04.261Z,100.00
2022-10-29T23:26:32.103Z,100.00
2022-10-29T23:29:00.141Z,100.00
2022-10-29T23:31:29.469Z,100.00
2022-10-29T23:33:58.344Z,100.00
2022-10-29T23:36:28.068Z,100.00
2022-10-29T23:38:56.848Z,100.00
2022-10-29T23:41:26.123Z,100.00
2022-10-29T23:43:54.005Z,100.00
2022-10-29T23:46:22.397Z,100.00
2022-10-29T23:48:50.838Z,100.00
2022-10-29T23:51:19.105Z,100.00
2022-10-29T23:53:49.168Z,100.00
2022-10-29T23:56:19.476Z,100.00
2022-10-29T23:58:48.603Z,100.00
